Barrow, AK

12:28 PM AKDT on June 25, 2018 (GMT -0800)
Wiley Post-Will Rogers Memorial

Weather History for PABR - November, 2017

Change the Weather History Date:

Thursday, November 9, 2017

  Actual Average Record
Temperature  
Mean Temperature 22 °F 3 °F  
Max Temperature 30 °F 9 °F 35 °F (2013)
Min Temperature 13 °F -2 °F -34 °F (1975)
Degree Days  
Heating Degree Days 43 62  
Month to date heating degree days 242 538  
Since 1 July heating degree days 3742 4561  
Cooling Degree Days 0 0  
Month to date cooling degree days 0 0  
Year to date cooling degree days 0 0  
Moisture  
Dew Point 23 °F    
Average Humidity 87    
Maximum Humidity 96    
Minimum Humidity 61    
Precipitation  
Precipitation 0.08 in 0.01 in 0.14 in (1972)
Month to date precipitation 0.29 0.08  
Year to date precipitation 7.33 4.26  
Snow  
Snow 0.80 in 0.20 in 1.50 in (1972)
Month to date snowfall 2.7 2.1  
Since 1 July snowfall 10.6 16.7  
Since 1 September snowfall 9.8 15.6  
Snow Depth 1.00 in    
Sea Level Pressure  
Sea Level Pressure 29.47 in    
Wind  
Wind Speed 18 mph (SW)    
Max Wind Speed 31 mph    
Max Gust Speed 38 mph    
Visibility 4 miles    
Events Fog , Snow    
T = Trace of Precipitation, MM = Missing Value Source: NWS Daily Summary

Daily Weather History Graph

Daily Weather History Graph

Search for Another Location

Airport or City:

Astronomy

Nov. 09, 2017 Rise Set
Actual Time 11:08 AM AKST 3:12 PM AKST
Civil Twilight 9:28 AM AKST 4:51 PM AKST
Nautical Twilight 8:03 AM AKST 6:16 PM AKST
Astronomical Twilight 6:47 AM AKST 7:32 PM AKST
Moon 8:45 PM AKST (11/9) 5:11 PM AKST (11/9)
Length of Visible Light 7h 23m
Length of Day
4h 04m
Waning Gibbous, 61% of the Moon is Illuminated
Nov 9
Waning Gibbous
Nov 10
Last Quarter
Nov 18
New
Nov 26
First Quarter
Dec 3
Full

Hourly Weather History & Observations

Time (AKST) Temp. Windchill Dew Point Humidity Pressure Visibility Wind Dir Wind Speed Gust Speed Precip Events Conditions
12:28 AM 19.0 °F 6.1 °F 16.0 °F 88% 29.37 in 10.0 mi South 12.7 mph - N/A   Overcast
12:53 AM 21.0 °F 8.1 °F 17.1 °F 85% 29.37 in 10.0 mi South 13.8 mph - N/A   Overcast
1:15 AM 23.0 °F 10.6 °F 19.0 °F 85% 29.35 in 9.0 mi South 13.8 mph - 0.00 in   Overcast
1:28 AM 23.0 °F 10.1 °F 19.9 °F 88% 29.35 in 10.0 mi South 15.0 mph - 0.00 in   Overcast
1:53 AM 24.1 °F 11.0 °F 19.9 °F 84% 29.36 in 10.0 mi SSW 16.1 mph - 0.00 in   Mostly Cloudy
2:53 AM 21.0 °F 8.1 °F 19.0 °F 92% 29.37 in 10.0 mi SSW 13.8 mph - N/A   Mostly Cloudy
3:35 AM 27.0 °F 13.9 °F 21.9 °F 81% 29.35 in 10.0 mi SW 18.4 mph - N/A   Scattered Clouds
3:53 AM 26.1 °F 12.7 °F 21.0 °F 81% 29.36 in 10.0 mi SW 18.4 mph - N/A   Scattered Clouds
4:53 AM 21.0 °F 6.6 °F 17.1 °F 85% 29.36 in 10.0 mi SSW 17.3 mph - N/A   Scattered Clouds
5:53 AM 18.0 °F 3.1 °F 14.0 °F 84% 29.36 in 10.0 mi SSW 16.1 mph - N/A   Clear
6:53 AM 15.1 °F -1.6 °F 10.9 °F 84% 29.36 in 10.0 mi SSW 18.4 mph - N/A   Partly Cloudy
7:53 AM 14.0 °F -1.4 °F 10.0 °F 84% 29.37 in 10.0 mi South 15.0 mph - N/A   Clear
8:53 AM 14.0 °F -2.0 °F 10.0 °F 84% 29.37 in 10.0 mi SSW 16.1 mph - N/A   Scattered Clouds
9:53 AM 15.1 °F -0.1 °F 10.9 °F 84% 29.38 in 10.0 mi SSW 15.0 mph - N/A   Scattered Clouds
10:53 AM 19.4 °F 6.0 °F 15.8 °F 86% 29.38 in 10.0 mi SSW 13.8 mph - N/A   Mostly Cloudy
11:53 AM 19.0 °F 6.1 °F 16.0 °F 88% 29.40 in 9.0 mi South 12.7 mph - 0.00 in   Mostly Cloudy
12:53 PM 19.0 °F 4.5 °F 15.1 °F 85% 29.41 in 9.0 mi SSW 16.1 mph - N/A   Overcast
1:53 PM 26.1 °F 14.0 °F 23.0 °F 88% 29.43 in 3.0 mi West 15.0 mph - 0.00 in Snow Light Snow
1:56 PM 27.0 °F 14.3 °F 25.0 °F 92% 29.42 in 1.5 mi West 17.3 mph - 0.00 in Snow Light Snow
1:58 PM 27.0 °F 15.2 °F 25.0 °F 92% 29.42 in 0.8 mi West 15.0 mph - 0.00 in Snow Light Snow
2:10 PM 27.0 °F 19.5 °F 26.1 °F 96% 29.43 in 0.2 mi West 6.9 mph - 0.02 in Fog , Snow Light Snow
2:16 PM 28.0 °F 20.8 °F 26.1 °F 92% 29.43 in 1.0 mi West 6.9 mph - 0.02 in Snow Light Snow
2:19 PM 28.0 °F 20.0 °F 26.1 °F 92% 29.43 in 3.0 mi WSW 8.1 mph - 0.02 in Snow Light Snow
2:38 PM 28.9 °F 17.7 °F 21.9 °F 75% 29.43 in 9.0 mi West 15.0 mph - 0.02 in Snow Light Snow
2:53 PM 28.9 °F 18.2 °F 23.0 °F 78% 29.44 in 8.0 mi West 13.8 mph - 0.02 in Snow Light Snow
3:53 PM 30.0 °F 17.9 °F 18.0 °F 61% 29.45 in 9.0 mi West 18.4 mph - 0.00 in Snow Light Snow
4:53 PM 24.1 °F 11.0 °F 19.9 °F 84% 29.47 in 9.0 mi SSW 16.1 mph - 0.00 in Snow Light Snow
5:44 PM 28.0 °F 13.6 °F 25.0 °F 88% 29.48 in 1.0 mi WSW 24.2 mph 29.9 mph 0.00 in Snow Light Snow
5:47 PM 28.4 °F 13.8 °F 24.8 °F 86% 29.48 in 0.5 mi WSW 25.3 mph 31.1 mph 0.00 in Fog , Snow Light Snow
5:53 PM 27.0 °F 14.7 °F 26.1 °F 96% 29.48 in 0.5 mi SW 16.1 mph 31.1 mph 0.00 in Fog , Snow Light Snow
5:59 PM 28.0 °F 14.6 °F 25.0 °F 88% 29.47 in 1.0 mi SW 20.7 mph - 0.00 in Snow Light Snow
6:06 PM 28.0 °F 12.8 °F 26.1 °F 92% 29.47 in 1.0 mi SW 27.6 mph 31.1 mph 0.00 in Snow Light Snow
6:08 PM 28.0 °F 13.0 °F 26.1 °F 92% 29.47 in 0.8 mi WSW 26.5 mph 31.1 mph 0.00 in Snow Light Snow
6:19 PM 28.0 °F 12.5 °F 25.0 °F 88% 29.47 in 1.0 mi WSW 28.8 mph 33.4 mph 0.00 in Snow Light Snow
6:34 PM 28.0 °F 13.3 °F 26.1 °F 92% 29.48 in 1.2 mi WSW 25.3 mph - 0.00 in Snow Light Snow
6:41 PM 27.0 °F 13.2 °F 25.0 °F 92% 29.48 in 1.2 mi WSW 20.7 mph - 0.01 in Snow Light Snow
6:48 PM 28.4 °F 15.1 °F 26.6 °F 93% 29.48 in 2.0 mi WSW 20.7 mph - 0.01 in Snow Light Snow
6:53 PM 28.0 °F 14.9 °F 24.1 °F 85% 29.49 in 4.0 mi WSW 19.6 mph - 0.01 in Snow Light Snow
7:04 PM 28.9 °F 16.5 °F 25.0 °F 85% 29.49 in 7.0 mi WSW 18.4 mph 26.5 mph 0.00 in Snow Light Snow
7:18 PM 28.0 °F 13.9 °F 25.0 °F 88% 29.49 in 1.8 mi West 23.0 mph 28.8 mph 0.00 in Snow Light Snow
7:22 PM 27.0 °F 13.5 °F 25.0 °F 92% 29.50 in 0.5 mi West 19.6 mph - 0.00 in Fog , Snow Light Snow
7:33 PM 27.0 °F 14.7 °F 26.1 °F 96% 29.50 in 0.5 mi SW 16.1 mph - 0.01 in Fog , Snow Light Snow
7:39 PM 28.0 °F 14.9 °F 25.0 °F 88% 29.50 in 1.0 mi SW 19.6 mph - 0.02 in Snow Light Snow
7:43 PM 28.0 °F 15.3 °F 26.1 °F 92% 29.50 in 3.0 mi SW 18.4 mph - 0.03 in Snow Light Snow
7:53 PM 28.0 °F 14.9 °F 26.1 °F 92% 29.51 in 4.0 mi SW 19.6 mph - 0.03 in Snow Light Snow
7:58 PM 28.0 °F 14.3 °F 26.1 °F 92% 29.50 in 1.8 mi SW 21.9 mph - 0.00 in Snow Light Snow
8:01 PM 28.0 °F 14.3 °F 26.1 °F 92% 29.50 in 0.8 mi SW 21.9 mph - 0.00 in Snow Light Snow
8:15 PM 28.0 °F 15.3 °F 26.1 °F 92% 29.51 in 1.0 mi West 18.4 mph - 0.00 in Snow Light Snow
8:25 PM 28.9 °F 15.8 °F 23.0 °F 78% 29.51 in 4.0 mi WSW 20.7 mph - 0.01 in Snow Light Snow
8:43 PM 28.0 °F 13.6 °F 25.0 °F 88% 29.52 in 2.5 mi WSW 24.2 mph - 0.01 in Snow Light Snow
8:51 PM 28.4 °F 15.1 °F 24.8 °F 86% 29.52 in 2.5 mi WSW 20.7 mph - 0.01 in Snow Light Snow
8:53 PM 28.0 °F 14.3 °F 24.1 °F 85% 29.52 in 3.0 mi SW 21.9 mph - 0.01 in Snow Light Snow
8:57 PM 28.0 °F 14.3 °F 26.1 °F 92% 29.52 in 1.8 mi WSW 21.9 mph - 0.00 in Snow Light Snow
9:07 PM 28.0 °F 14.6 °F 25.0 °F 88% 29.52 in 3.0 mi WSW 20.7 mph - 0.00 in Snow Light Snow
9:11 PM 28.0 °F 14.3 °F 26.1 °F 92% 29.53 in 1.8 mi SW 21.9 mph - 0.00 in Snow Light Snow
9:17 PM 28.0 °F 14.3 °F 26.1 °F 92% 29.52 in 1.2 mi SW 21.9 mph - 0.00 in Snow Light Snow
9:24 PM 28.0 °F 14.3 °F 25.0 °F 88% 29.52 in 2.0 mi WSW 21.9 mph - 0.00 in Snow Light Snow
9:31 PM 28.0 °F 13.9 °F 25.0 °F 88% 29.52 in 2.5 mi WSW 23.0 mph - 0.00 in Snow Light Snow
9:44 PM 28.0 °F 13.9 °F 25.0 °F 88% 29.52 in 1.2 mi West 23.0 mph - 0.00 in Snow Light Snow
9:53 PM 28.9 °F 14.8 °F 24.1 °F 82% 29.53 in 3.0 mi WSW 24.2 mph - 0.00 in Snow Light Snow
9:58 PM 28.9 °F 16.1 °F 25.0 °F 85% 29.53 in 2.5 mi SW 19.6 mph - 0.00 in Snow Light Snow
10:04 PM 28.0 °F 16.1 °F 26.1 °F 92% 29.53 in 1.5 mi SW 16.1 mph - 0.00 in Snow Light Snow
10:08 PM 28.9 °F 14.8 °F 25.0 °F 85% 29.53 in 2.5 mi West 24.2 mph - 0.00 in Snow Light Snow
10:16 PM 28.9 °F 14.5 °F 24.1 °F 82% 29.53 in 3.0 mi West 25.3 mph - 0.00 in Snow Light Snow
10:20 PM 28.9 °F 13.2 °F 24.1 °F 82% 29.53 in 1.5 mi West 31.1 mph 38.0 mph 0.00 in Snow Light Snow
10:25 PM 28.0 °F 13.0 °F 25.0 °F 88% 29.54 in 0.8 mi West 26.5 mph 38.0 mph 0.00 in Snow Light Snow
10:37 PM 28.0 °F 15.3 °F 26.1 °F 92% 29.54 in 1.5 mi West 18.4 mph - 0.01 in Snow Light Snow
10:53 PM 28.0 °F 13.6 °F 25.0 °F 88% 29.55 in 1.0 mi WSW 24.2 mph 34.5 mph 0.01 in Snow Light Snow
11:01 PM 28.0 °F 12.5 °F 23.0 °F 81% 29.54 in 1.0 mi WSW 28.8 mph 38.0 mph 0.00 in Snow Light Snow
11:06 PM 27.0 °F 12.2 °F 25.0 °F 92% 29.55 in 0.5 mi WSW 24.2 mph 38.0 mph 0.00 in Fog , Snow Light Snow
11:11 PM 28.0 °F 14.3 °F 25.0 °F 88% 29.55 in 1.0 mi WSW 21.9 mph - 0.00 in Snow Light Snow
11:21 PM 27.0 °F 12.8 °F 23.0 °F 85% 29.55 in 0.8 mi West 21.9 mph 38.0 mph 0.00 in Snow Light Snow
11:30 PM 28.0 °F 12.5 °F 25.0 °F 88% 29.55 in 1.0 mi SW 28.8 mph 33.4 mph 0.00 in Snow Light Snow
11:34 PM 28.0 °F 12.3 °F 25.0 °F 88% 29.55 in 0.5 mi WSW 29.9 mph 38.0 mph 0.00 in Fog , Snow Light Snow
11:45 PM 28.0 °F 12.0 °F 24.1 °F 85% 29.55 in 0.8 mi WSW 31.1 mph 38.0 mph 0.00 in Snow Light Snow
11:53 PM 28.0 °F 13.0 °F 25.0 °F 88% 29.57 in 1.0 mi SW 26.5 mph 36.8 mph 0.00 in Snow Light Snow